sensor_id;sensor_type;location;lat;lon;timestamp;P1;durP1;ratioP1;P2;durP2;ratioP2
71620;SDS011;59471;42.254;23.102;2023-04-03T00:01:09;12.17;;;5.47;;
71620;SDS011;59471;42.254;23.102;2023-04-03T00:03:35;9.48;;;4.68;;
71620;SDS011;59471;42.254;23.102;2023-04-03T00:06:02;11.02;;;4.53;;
71620;SDS011;59471;42.254;23.102;2023-04-03T00:08:30;9.00;;;3.93;;
71620;SDS011;59471;42.254;23.102;2023-04-03T00:10:57;9.15;;;4.00;;
71620;SDS011;59471;42.254;23.102;2023-04-03T00:13:23;6.97;;;3.67;;
71620;SDS011;59471;42.254;23.102;2023-04-03T00:15:50;15.87;;;5.10;;
71620;SDS011;59471;42.254;23.102;2023-04-03T00:18:16;8.88;;;3.45;;
71620;SDS011;59471;42.254;23.102;2023-04-03T00:20:42;9.65;;;3.00;;
71620;SDS011;59471;42.254;23.102;2023-04-03T00:23:09;6.32;;;3.08;;
71620;SDS011;59471;42.254;23.102;2023-04-03T00:25:35;6.20;;;2.40;;
71620;SDS011;59471;42.254;23.102;2023-04-03T00:28:01;4.97;;;2.50;;
71620;SDS011;59471;42.254;23.102;2023-04-03T00:30:28;9.35;;;2.75;;
71620;SDS011;59471;42.254;23.102;2023-04-03T00:32:54;6.47;;;2.40;;
71620;SDS011;59471;42.254;23.102;2023-04-03T00:35:20;5.70;;;3.00;;
71620;SDS011;59471;42.254;23.102;2023-04-03T00:37:47;6.43;;;3.00;;
71620;SDS011;59471;42.254;23.102;2023-04-03T00:40:14;15.20;;;6.70;;
71620;SDS011;59471;42.254;23.102;2023-04-03T00:42:41;13.73;;;5.30;;
71620;SDS011;59471;42.254;23.102;2023-04-03T00:47:43;12.00;;;3.73;;
71620;SDS011;59471;42.254;23.102;2023-04-03T00:50:09;7.30;;;2.80;;
71620;SDS011;59471;42.254;23.102;2023-04-03T00:52:35;7.55;;;3.28;;
71620;SDS011;59471;42.254;23.102;2023-04-03T00:55:04;16.17;;;6.50;;
71620;SDS011;59471;42.254;23.102;2023-04-03T00:57:33;13.55;;;5.85;;
71620;SDS011;59471;42.254;23.102;2023-04-03T01:00:02;16.38;;;6.30;;
71620;SDS011;59471;42.254;23.102;2023-04-03T01:02:35;18.50;;;7.67;;
71620;SDS011;59471;42.254;23.102;2023-04-03T01:05:01;16.48;;;6.13;;
71620;SDS011;59471;42.254;23.102;2023-04-03T01:07:29;13.20;;;5.30;;
71620;SDS011;59471;42.254;23.102;2023-04-03T01:09:57;9.95;;;4.50;;
71620;SDS011;59471;42.254;23.102;2023-04-03T01:12:27;8.95;;;3.70;;
71620;SDS011;59471;42.254;23.102;2023-04-03T01:14:59;7.55;;;3.65;;
71620;SDS011;59471;42.254;23.102;2023-04-03T01:25:42;5.60;;;2.80;;
71620;SDS011;59471;42.254;23.102;2023-04-03T01:28:25;6.97;;;3.30;;
71620;SDS011;59471;42.254;23.102;2023-04-03T01:33:50;5.82;;;3.17;;
71620;SDS011;59471;42.254;23.102;2023-04-03T01:36:24;10.30;;;4.43;;
71620;SDS011;59471;42.254;23.102;2023-04-03T01:38:53;7.57;;;3.72;;
71620;SDS011;59471;42.254;23.102;2023-04-03T01:41:20;7.63;;;3.60;;
71620;SDS011;59471;42.254;23.102;2023-04-03T01:43:46;7.13;;;2.43;;
71620;SDS011;59471;42.254;23.102;2023-04-03T01:46:13;5.20;;;2.35;;
71620;SDS011;59471;42.254;23.102;2023-04-03T01:48:39;4.35;;;2.15;;
71620;SDS011;59471;42.254;23.102;2023-04-03T01:51:05;4.17;;;1.90;;
71620;SDS011;59471;42.254;23.102;2023-04-03T01:53:31;7.15;;;2.42;;
71620;SDS011;59471;42.254;23.102;2023-04-03T01:55:57;4.93;;;2.70;;
71620;SDS011;59471;42.254;23.102;2023-04-03T01:58:22;7.05;;;2.47;;
71620;SDS011;59471;42.254;23.102;2023-04-03T02:00:48;4.43;;;2.30;;
71620;SDS011;59471;42.254;23.102;2023-04-03T02:03:13;3.37;;;1.80;;
71620;SDS011;59471;42.254;23.102;2023-04-03T02:05:40;5.27;;;2.43;;
71620;SDS011;59471;42.254;23.102;2023-04-03T02:08:05;11.95;;;5.70;;
71620;SDS011;59471;42.254;23.102;2023-04-03T02:10:31;12.10;;;5.50;;
71620;SDS011;59471;42.254;23.102;2023-04-03T02:12:57;9.25;;;4.70;;
71620;SDS011;59471;42.254;23.102;2023-04-03T02:15:22;7.13;;;2.90;;
71620;SDS011;59471;42.254;23.102;2023-04-03T02:17:48;4.13;;;2.33;;
71620;SDS011;59471;42.254;23.102;2023-04-03T02:20:13;6.50;;;2.70;;
71620;SDS011;59471;42.254;23.102;2023-04-03T02:22:39;6.00;;;2.70;;
71620;SDS011;59471;42.254;23.102;2023-04-03T02:25:05;7.28;;;2.88;;
71620;SDS011;59471;42.254;23.102;2023-04-03T02:27:30;6.03;;;2.80;;
71620;SDS011;59471;42.254;23.102;2023-04-03T02:29:56;7.07;;;2.38;;
71620;SDS011;59471;42.254;23.102;2023-04-03T02:32:22;6.80;;;2.67;;
71620;SDS011;59471;42.254;23.102;2023-04-03T02:34:48;7.50;;;2.87;;
71620;SDS011;59471;42.254;23.102;2023-04-03T02:37:13;5.80;;;2.80;;
71620;SDS011;59471;42.254;23.102;2023-04-03T02:39:39;4.75;;;2.60;;
71620;SDS011;59471;42.254;23.102;2023-04-03T02:42:05;5.37;;;2.43;;
71620;SDS011;59471;42.254;23.102;2023-04-03T02:44:30;5.97;;;2.63;;
71620;SDS011;59471;42.254;23.102;2023-04-03T02:46:56;9.70;;;2.77;;
71620;SDS011;59471;42.254;23.102;2023-04-03T02:49:21;7.33;;;2.50;;
71620;SDS011;59471;42.254;23.102;2023-04-03T02:51:47;6.93;;;2.63;;
71620;SDS011;59471;42.254;23.102;2023-04-03T02:54:12;6.67;;;2.57;;
71620;SDS011;59471;42.254;23.102;2023-04-03T02:56:38;6.28;;;2.88;;
71620;SDS011;59471;42.254;23.102;2023-04-03T02:59:04;6.57;;;3.53;;
71620;SDS011;59471;42.254;23.102;2023-04-03T03:01:30;7.63;;;3.33;;
71620;SDS011;59471;42.254;23.102;2023-04-03T03:03:58;8.27;;;3.27;;
71620;SDS011;59471;42.254;23.102;2023-04-03T03:06:25;6.05;;;2.47;;
71620;SDS011;59471;42.254;23.102;2023-04-03T03:08:51;6.38;;;3.30;;
71620;SDS011;59471;42.254;23.102;2023-04-03T03:11:17;8.10;;;3.77;;
71620;SDS011;59471;42.254;23.102;2023-04-03T03:13:42;6.28;;;3.20;;
71620;SDS011;59471;42.254;23.102;2023-04-03T03:16:08;8.25;;;3.38;;
71620;SDS011;59471;42.254;23.102;2023-04-03T03:18:34;8.40;;;3.20;;
71620;SDS011;59471;42.254;23.102;2023-04-03T03:21:01;5.32;;;2.38;;
71620;SDS011;59471;42.254;23.102;2023-04-03T03:23:28;5.68;;;3.30;;
71620;SDS011;59471;42.254;23.102;2023-04-03T03:25:59;11.13;;;7.33;;
71620;SDS011;59471;42.254;23.102;2023-04-03T03:28:31;7.30;;;4.53;;
71620;SDS011;59471;42.254;23.102;2023-04-03T03:30:57;5.40;;;2.90;;
71620;SDS011;59471;42.254;23.102;2023-04-03T03:33:23;5.30;;;2.97;;
71620;SDS011;59471;42.254;23.102;2023-04-03T03:35:50;5.47;;;2.88;;
71620;SDS011;59471;42.254;23.102;2023-04-03T03:38:17;6.88;;;3.70;;
71620;SDS011;59471;42.254;23.102;2023-04-03T03:40:42;5.13;;;3.20;;
71620;SDS011;59471;42.254;23.102;2023-04-03T03:43:08;8.47;;;2.90;;
71620;SDS011;59471;42.254;23.102;2023-04-03T03:45:34;9.50;;;2.90;;
71620;SDS011;59471;42.254;23.102;2023-04-03T03:48:00;8.30;;;3.70;;
71620;SDS011;59471;42.254;23.102;2023-04-03T03:50:26;6.95;;;3.65;;
71620;SDS011;59471;42.254;23.102;2023-04-03T03:52:52;6.33;;;2.97;;
71620;SDS011;59471;42.254;23.102;2023-04-03T03:55:17;5.77;;;3.07;;
71620;SDS011;59471;42.254;23.102;2023-04-03T03:57:43;5.53;;;3.00;;
71620;SDS011;59471;42.254;23.102;2023-04-03T04:00:09;4.50;;;2.50;;
71620;SDS011;59471;42.254;23.102;2023-04-03T04:02:35;4.97;;;2.70;;
71620;SDS011;59471;42.254;23.102;2023-04-03T04:05:00;6.30;;;3.23;;
71620;SDS011;59471;42.254;23.102;2023-04-03T04:07:26;10.40;;;4.32;;
71620;SDS011;59471;42.254;23.102;2023-04-03T04:09:53;7.90;;;3.77;;
71620;SDS011;59471;42.254;23.102;2023-04-03T04:12:19;8.50;;;4.05;;
71620;SDS011;59471;42.254;23.102;2023-04-03T04:14:45;6.10;;;3.60;;
71620;SDS011;59471;42.254;23.102;2023-04-03T04:17:12;8.40;;;3.27;;
71620;SDS011;59471;42.254;23.102;2023-04-03T04:19:38;7.55;;;3.75;;
71620;SDS011;59471;42.254;23.102;2023-04-03T04:22:04;10.97;;;3.73;;
71620;SDS011;59471;42.254;23.102;2023-04-03T04:24:29;10.98;;;3.65;;
71620;SDS011;59471;42.254;23.102;2023-04-03T04:26:55;8.00;;;3.73;;
71620;SDS011;59471;42.254;23.102;2023-04-03T04:29:20;16.33;;;7.37;;
71620;SDS011;59471;42.254;23.102;2023-04-03T04:31:46;9.85;;;4.35;;
71620;SDS011;59471;42.254;23.102;2023-04-03T04:34:12;8.17;;;3.97;;
71620;SDS011;59471;42.254;23.102;2023-04-03T04:36:40;8.85;;;4.38;;
71620;SDS011;59471;42.254;23.102;2023-04-03T04:39:05;66.60;;;32.30;;
71620;SDS011;59471;42.254;23.102;2023-04-03T04:41:31;60.58;;;30.52;;
71620;SDS011;59471;42.254;23.102;2023-04-03T04:43:57;13.40;;;6.47;;
71620;SDS011;59471;42.254;23.102;2023-04-03T04:46:23;6.43;;;2.60;;
71620;SDS011;59471;42.254;23.102;2023-04-03T04:48:48;10.23;;;4.03;;
71620;SDS011;59471;42.254;23.102;2023-04-03T04:51:14;15.57;;;6.20;;
71620;SDS011;59471;42.254;23.102;2023-04-03T04:53:40;20.27;;;9.35;;
71620;SDS011;59471;42.254;23.102;2023-04-03T04:56:07;12.93;;;5.60;;
71620;SDS011;59471;42.254;23.102;2023-04-03T04:58:33;13.75;;;6.57;;
71620;SDS011;59471;42.254;23.102;2023-04-03T05:00:59;5.47;;;2.90;;
71620;SDS011;59471;42.254;23.102;2023-04-03T05:03:30;6.72;;;3.25;;
71620;SDS011;59471;42.254;23.102;2023-04-03T05:05:56;8.93;;;3.60;;
71620;SDS011;59471;42.254;23.102;2023-04-03T05:08:21;9.97;;;4.80;;
71620;SDS011;59471;42.254;23.102;2023-04-03T05:10:48;8.73;;;4.03;;
71620;SDS011;59471;42.254;23.102;2023-04-03T05:13:14;5.73;;;3.00;;
71620;SDS011;59471;42.254;23.102;2023-04-03T05:15:39;7.00;;;2.55;;
71620;SDS011;59471;42.254;23.102;2023-04-03T05:18:05;4.63;;;2.20;;
71620;SDS011;59471;42.254;23.102;2023-04-03T05:20:31;9.00;;;4.10;;
71620;SDS011;59471;42.254;23.102;2023-04-03T05:22:57;12.47;;;5.63;;
71620;SDS011;59471;42.254;23.102;2023-04-03T05:25:23;9.93;;;5.28;;
71620;SDS011;59471;42.254;23.102;2023-04-03T05:27:48;11.17;;;6.40;;
71620;SDS011;59471;42.254;23.102;2023-04-03T05:30:15;43.70;;;21.92;;
71620;SDS011;59471;42.254;23.102;2023-04-03T05:32:41;26.55;;;13.75;;
71620;SDS011;59471;42.254;23.102;2023-04-03T05:35:07;15.37;;;8.07;;
71620;SDS011;59471;42.254;23.102;2023-04-03T05:37:33;13.48;;;6.80;;
71620;SDS011;59471;42.254;23.102;2023-04-03T05:39:59;12.73;;;6.00;;
71620;SDS011;59471;42.254;23.102;2023-04-03T05:42:25;8.00;;;4.27;;
71620;SDS011;59471;42.254;23.102;2023-04-03T05:44:50;9.27;;;4.80;;
71620;SDS011;59471;42.254;23.102;2023-04-03T05:47:16;9.63;;;4.78;;
71620;SDS011;59471;42.254;23.102;2023-04-03T05:49:43;15.97;;;7.83;;
71620;SDS011;59471;42.254;23.102;2023-04-03T05:52:30;16.70;;;7.25;;
71620;SDS011;59471;42.254;23.102;2023-04-03T05:54:58;9.30;;;4.93;;
71620;SDS011;59471;42.254;23.102;2023-04-03T05:57:24;10.50;;;5.60;;
71620;SDS011;59471;42.254;23.102;2023-04-03T05:59:50;10.10;;;3.53;;
71620;SDS011;59471;42.254;23.102;2023-04-03T06:02:17;9.07;;;3.97;;
71620;SDS011;59471;42.254;23.102;2023-04-03T06:04:44;11.70;;;4.05;;
71620;SDS011;59471;42.254;23.102;2023-04-03T06:07:13;8.48;;;3.58;;
71620;SDS011;59471;42.254;23.102;2023-04-03T06:09:41;9.03;;;4.87;;
71620;SDS011;59471;42.254;23.102;2023-04-03T06:12:07;7.65;;;3.67;;
71620;SDS011;59471;42.254;23.102;2023-04-03T06:14:33;11.70;;;4.40;;
71620;SDS011;59471;42.254;23.102;2023-04-03T06:16:59;7.43;;;3.20;;
71620;SDS011;59471;42.254;23.102;2023-04-03T06:19:26;9.27;;;4.15;;
71620;SDS011;59471;42.254;23.102;2023-04-03T06:21:52;10.93;;;5.88;;
71620;SDS011;59471;42.254;23.102;2023-04-03T06:24:18;10.93;;;5.00;;
71620;SDS011;59471;42.254;23.102;2023-04-03T06:26:46;11.45;;;5.63;;
71620;SDS011;59471;42.254;23.102;2023-04-03T06:29:12;13.25;;;7.93;;
71620;SDS011;59471;42.254;23.102;2023-04-03T06:31:38;9.63;;;5.00;;
71620;SDS011;59471;42.254;23.102;2023-04-03T06:34:04;10.90;;;5.00;;
71620;SDS011;59471;42.254;23.102;2023-04-03T06:36:32;12.90;;;4.78;;
71620;SDS011;59471;42.254;23.102;2023-04-03T06:38:57;7.70;;;3.73;;
71620;SDS011;59471;42.254;23.102;2023-04-03T06:41:23;6.28;;;3.35;;
71620;SDS011;59471;42.254;23.102;2023-04-03T06:43:48;12.57;;;6.10;;
71620;SDS011;59471;42.254;23.102;2023-04-03T06:46:15;8.73;;;3.90;;
71620;SDS011;59471;42.254;23.102;2023-04-03T06:48:42;9.10;;;4.43;;
71620;SDS011;59471;42.254;23.102;2023-04-03T06:51:19;6.55;;;3.50;;
71620;SDS011;59471;42.254;23.102;2023-04-03T06:53:46;7.55;;;3.47;;
71620;SDS011;59471;42.254;23.102;2023-04-03T06:56:13;9.90;;;4.63;;
71620;SDS011;59471;42.254;23.102;2023-04-03T06:58:40;27.40;;;14.20;;
71620;SDS011;59471;42.254;23.102;2023-04-03T07:01:06;26.30;;;13.38;;
71620;SDS011;59471;42.254;23.102;2023-04-03T07:03:35;11.97;;;5.00;;
71620;SDS011;59471;42.254;23.102;2023-04-03T07:06:01;10.93;;;4.28;;
71620;SDS011;59471;42.254;23.102;2023-04-03T07:08:28;6.60;;;3.70;;
71620;SDS011;59471;42.254;23.102;2023-04-03T07:10:54;8.00;;;3.23;;
71620;SDS011;59471;42.254;23.102;2023-04-03T07:13:19;6.20;;;3.17;;
71620;SDS011;59471;42.254;23.102;2023-04-03T07:15:45;10.20;;;3.10;;
71620;SDS011;59471;42.254;23.102;2023-04-03T07:18:11;9.27;;;3.73;;
71620;SDS011;59471;42.254;23.102;2023-04-03T07:20:36;18.07;;;10.83;;
71620;SDS011;59471;42.254;23.102;2023-04-03T07:23:03;8.93;;;4.18;;
71620;SDS011;59471;42.254;23.102;2023-04-03T07:25:29;6.93;;;3.37;;
71620;SDS011;59471;42.254;23.102;2023-04-03T07:27:55;5.55;;;2.95;;
71620;SDS011;59471;42.254;23.102;2023-04-03T07:30:21;106.47;;;6.88;;
71620;SDS011;59471;42.254;23.102;2023-04-03T07:32:47;7.83;;;3.30;;
71620;SDS011;59471;42.254;23.102;2023-04-03T07:35:12;6.63;;;2.88;;
71620;SDS011;59471;42.254;23.102;2023-04-03T07:37:38;5.53;;;3.27;;
71620;SDS011;59471;42.254;23.102;2023-04-03T07:40:04;8.50;;;3.35;;
71620;SDS011;59471;42.254;23.102;2023-04-03T07:42:31;6.63;;;3.03;;
71620;SDS011;59471;42.254;23.102;2023-04-03T07:44:57;14.05;;;6.70;;
71620;SDS011;59471;42.254;23.102;2023-04-03T07:47:23;6.73;;;3.57;;
71620;SDS011;59471;42.254;23.102;2023-04-03T07:49:48;17.70;;;11.45;;
71620;SDS011;59471;42.254;23.102;2023-04-03T07:52:14;21.03;;;17.30;;
71620;SDS011;59471;42.254;23.102;2023-04-03T07:54:40;18.73;;;15.32;;
71620;SDS011;59471;42.254;23.102;2023-04-03T07:57:07;5.82;;;2.40;;
71620;SDS011;59471;42.254;23.102;2023-04-03T07:59:32;8.20;;;3.00;;
71620;SDS011;59471;42.254;23.102;2023-04-03T08:01:58;21.85;;;17.55;;
71620;SDS011;59471;42.254;23.102;2023-04-03T08:04:24;4.67;;;2.63;;
71620;SDS011;59471;42.254;23.102;2023-04-03T08:06:51;3.33;;;1.73;;
71620;SDS011;59471;42.254;23.102;2023-04-03T08:09:17;7.37;;;3.70;;
71620;SDS011;59471;42.254;23.102;2023-04-03T08:11:44;5.70;;;2.83;;
71620;SDS011;59471;42.254;23.102;2023-04-03T08:14:10;5.45;;;2.10;;
71620;SDS011;59471;42.254;23.102;2023-04-03T08:16:41;6.25;;;2.83;;
71620;SDS011;59471;42.254;23.102;2023-04-03T08:19:08;8.70;;;2.83;;
71620;SDS011;59471;42.254;23.102;2023-04-03T08:21:35;8.95;;;2.30;;
71620;SDS011;59471;42.254;23.102;2023-04-03T08:24:01;4.10;;;1.63;;
71620;SDS011;59471;42.254;23.102;2023-04-03T08:26:29;11.80;;;4.43;;
71620;SDS011;59471;42.254;23.102;2023-04-03T08:28:54;72.25;;;22.20;;
71620;SDS011;59471;42.254;23.102;2023-04-03T08:31:20;5.80;;;2.30;;
71620;SDS011;59471;42.254;23.102;2023-04-03T08:33:46;5.88;;;2.30;;
71620;SDS011;59471;42.254;23.102;2023-04-03T08:36:30;6.53;;;2.63;;
71620;SDS011;59471;42.254;23.102;2023-04-03T08:38:56;8.48;;;2.83;;
71620;SDS011;59471;42.254;23.102;2023-04-03T08:41:33;11.35;;;4.90;;
71620;SDS011;59471;42.254;23.102;2023-04-03T08:47:02;3.67;;;1.70;;
71620;SDS011;59471;42.254;23.102;2023-04-03T08:50:02;3.40;;;1.52;;
71620;SDS011;59471;42.254;23.102;2023-04-03T08:57:48;6.03;;;2.50;;
71620;SDS011;59471;42.254;23.102;2023-04-03T09:00:23;8.77;;;4.38;;
71620;SDS011;59471;42.254;23.102;2023-04-03T09:02:54;4.00;;;2.33;;
71620;SDS011;59471;42.254;23.102;2023-04-03T09:10:58;3.30;;;1.80;;
71620;SDS011;59471;42.254;23.102;2023-04-03T09:16:32;17.75;;;15.45;;
71620;SDS011;59471;42.254;23.102;2023-04-03T09:24:27;5.30;;;2.47;;
71620;SDS011;59471;42.254;23.102;2023-04-03T09:29:33;160.67;;;53.67;;
71620;SDS011;59471;42.254;23.102;2023-04-03T09:34:57;44.10;;;15.15;;
71620;SDS011;59471;42.254;23.102;2023-04-03T09:37:42;57.22;;;17.55;;
71620;SDS011;59471;42.254;23.102;2023-04-03T09:42:52;80.25;;;26.80;;
71620;SDS011;59471;42.254;23.102;2023-04-03T09:45:30;422.85;;;124.68;;
71620;SDS011;59471;42.254;23.102;2023-04-03T09:48:07;349.90;;;97.53;;
71620;SDS011;59471;42.254;23.102;2023-04-03T09:56:04;235.83;;;70.87;;
71620;SDS011;59471;42.254;23.102;2023-04-03T09:58:51;37.22;;;11.00;;
71620;SDS011;59471;42.254;23.102;2023-04-03T10:01:37;114.60;;;30.50;;
71620;SDS011;59471;42.254;23.102;2023-04-03T10:04:08;226.30;;;54.50;;
71620;SDS011;59471;42.254;23.102;2023-04-03T10:06:47;75.47;;;20.77;;
71620;SDS011;59471;42.254;23.102;2023-04-03T10:09:26;78.63;;;21.75;;
71620;SDS011;59471;42.254;23.102;2023-04-03T10:12:07;69.15;;;15.90;;
71620;SDS011;59471;42.254;23.102;2023-04-03T10:14:42;69.73;;;16.70;;
71620;SDS011;59471;42.254;23.102;2023-04-03T10:36:51;83.07;;;19.17;;
71620;SDS011;59471;42.254;23.102;2023-04-03T10:39:33;9.25;;;3.35;;
71620;SDS011;59471;42.254;23.102;2023-04-03T10:42:03;5.43;;;2.20;;
71620;SDS011;59471;42.254;23.102;2023-04-03T10:44:38;5.35;;;1.75;;
71620;SDS011;59471;42.254;23.102;2023-04-03T10:53:27;23.02;;;5.57;;
71620;SDS011;59471;42.254;23.102;2023-04-03T10:58:44;60.67;;;13.43;;
71620;SDS011;59471;42.254;23.102;2023-04-03T11:04:36;300.75;;;50.42;;
71620;SDS011;59471;42.254;23.102;2023-04-03T11:07:10;266.70;;;43.63;;
71620;SDS011;59471;42.254;23.102;2023-04-03T11:09:43;50.10;;;8.77;;
71620;SDS011;59471;42.254;23.102;2023-04-03T11:12:15;66.32;;;16.83;;
71620;SDS011;59471;42.254;23.102;2023-04-03T11:15:03;98.70;;;20.42;;
71620;SDS011;59471;42.254;23.102;2023-04-03T11:17:33;62.77;;;13.53;;
71620;SDS011;59471;42.254;23.102;2023-04-03T11:20:16;53.90;;;11.63;;
71620;SDS011;59471;42.254;23.102;2023-04-03T11:22:56;139.13;;;24.40;;
71620;SDS011;59471;42.254;23.102;2023-04-03T11:25:26;66.07;;;15.38;;
71620;SDS011;59471;42.254;23.102;2023-04-03T11:28:01;48.90;;;10.77;;
71620;SDS011;59471;42.254;23.102;2023-04-03T11:30:34;157.57;;;27.45;;
71620;SDS011;59471;42.254;23.102;2023-04-03T11:36:29;44.10;;;10.50;;
71620;SDS011;59471;42.254;23.102;2023-04-03T11:39:07;142.15;;;22.75;;
71620;SDS011;59471;42.254;23.102;2023-04-03T11:41:44;448.88;;;83.05;;
71620;SDS011;59471;42.254;23.102;2023-04-03T11:44:26;194.23;;;34.00;;
71620;SDS011;59471;42.254;23.102;2023-04-03T11:47:02;282.20;;;52.60;;
71620;SDS011;59471;42.254;23.102;2023-04-03T11:53:00;78.40;;;18.02;;
71620;SDS011;59471;42.254;23.102;2023-04-03T12:13:39;54.63;;;16.47;;
71620;SDS011;59471;42.254;23.102;2023-04-03T12:27:21;48.50;;;17.20;;
71620;SDS011;59471;42.254;23.102;2023-04-03T12:29:56;23.10;;;13.25;;
71620;SDS011;59471;42.254;23.102;2023-04-03T12:46:23;222.00;;;65.72;;
71620;SDS011;59471;42.254;23.102;2023-04-03T12:48:55;58.65;;;21.38;;
71620;SDS011;59471;42.254;23.102;2023-04-03T12:51:39;400.17;;;156.57;;
71620;SDS011;59471;42.254;23.102;2023-04-03T12:54:15;255.30;;;111.63;;
71620;SDS011;59471;42.254;23.102;2023-04-03T12:56:47;159.73;;;70.90;;
71620;SDS011;59471;42.254;23.102;2023-04-03T12:59:18;145.45;;;70.50;;
71620;SDS011;59471;42.254;23.102;2023-04-03T13:01:56;79.60;;;35.45;;
71620;SDS011;59471;42.254;23.102;2023-04-03T13:04:27;167.38;;;59.35;;
71620;SDS011;59471;42.254;23.102;2023-04-03T13:06:54;58.37;;;27.77;;
71620;SDS011;59471;42.254;23.102;2023-04-03T13:09:27;93.32;;;50.13;;
71620;SDS011;59471;42.254;23.102;2023-04-03T13:12:03;24.63;;;12.35;;
71620;SDS011;59471;42.254;23.102;2023-04-03T13:14:37;21.03;;;12.17;;
71620;SDS011;59471;42.254;23.102;2023-04-03T13:17:04;17.02;;;9.93;;
71620;SDS011;59471;42.254;23.102;2023-04-03T13:19:38;17.85;;;10.70;;
71620;SDS011;59471;42.254;23.102;2023-04-03T13:22:06;9.40;;;5.47;;
71620;SDS011;59471;42.254;23.102;2023-04-03T13:25:08;46.22;;;25.30;;
71620;SDS011;59471;42.254;23.102;2023-04-03T13:27:36;51.15;;;28.92;;
71620;SDS011;59471;42.254;23.102;2023-04-03T13:30:17;55.50;;;41.73;;
71620;SDS011;59471;42.254;23.102;2023-04-03T13:32:58;16.92;;;10.27;;
71620;SDS011;59471;42.254;23.102;2023-04-03T13:35:30;14.35;;;9.73;;
71620;SDS011;59471;42.254;23.102;2023-04-03T13:38:04;23.80;;;15.05;;
71620;SDS011;59471;42.254;23.102;2023-04-03T13:40:55;20.13;;;13.30;;
71620;SDS011;59471;42.254;23.102;2023-04-03T13:43:26;9.25;;;4.20;;
71620;SDS011;59471;42.254;23.102;2023-04-03T13:46:19;10.13;;;6.97;;
71620;SDS011;59471;42.254;23.102;2023-04-03T13:48:53;12.90;;;7.70;;
71620;SDS011;59471;42.254;23.102;2023-04-03T13:51:28;9.98;;;6.97;;
71620;SDS011;59471;42.254;23.102;2023-04-03T13:54:10;17.52;;;11.07;;
71620;SDS011;59471;42.254;23.102;2023-04-03T13:56:52;8.03;;;4.73;;
71620;SDS011;59471;42.254;23.102;2023-04-03T13:59:40;12.50;;;7.65;;
71620;SDS011;59471;42.254;23.102;2023-04-03T14:07:09;31.60;;;18.20;;
71620;SDS011;59471;42.254;23.102;2023-04-03T14:09:36;14.65;;;8.77;;
71620;SDS011;59471;42.254;23.102;2023-04-03T14:12:04;12.20;;;7.60;;
71620;SDS011;59471;42.254;23.102;2023-04-03T14:14:37;28.20;;;17.67;;
71620;SDS011;59471;42.254;23.102;2023-04-03T14:17:10;7.00;;;3.78;;
71620;SDS011;59471;42.254;23.102;2023-04-03T14:19:42;47.85;;;16.95;;
71620;SDS011;59471;42.254;23.102;2023-04-03T14:22:18;34.93;;;13.70;;
71620;SDS011;59471;42.254;23.102;2023-04-03T14:24:48;221.00;;;76.23;;
71620;SDS011;59471;42.254;23.102;2023-04-03T14:27:18;200.13;;;63.30;;
71620;SDS011;59471;42.254;23.102;2023-04-03T14:29:48;85.28;;;27.08;;
71620;SDS011;59471;42.254;23.102;2023-04-03T14:32:17;31.27;;;10.87;;
71620;SDS011;59471;42.254;23.102;2023-04-03T14:34:48;136.52;;;36.35;;
71620;SDS011;59471;42.254;23.102;2023-04-03T14:37:20;137.10;;;35.30;;
71620;SDS011;59471;42.254;23.102;2023-04-03T14:39:53;15.20;;;7.90;;
71620;SDS011;59471;42.254;23.102;2023-04-03T14:42:27;16.15;;;9.45;;
71620;SDS011;59471;42.254;23.102;2023-04-03T14:44:56;18.13;;;9.65;;
71620;SDS011;59471;42.254;23.102;2023-04-03T14:47:24;15.45;;;8.93;;
71620;SDS011;59471;42.254;23.102;2023-04-03T14:49:52;14.07;;;7.93;;
71620;SDS011;59471;42.254;23.102;2023-04-03T14:52:23;9.07;;;5.15;;
71620;SDS011;59471;42.254;23.102;2023-04-03T14:54:52;16.08;;;9.57;;
71620;SDS011;59471;42.254;23.102;2023-04-03T14:57:19;32.97;;;20.47;;
71620;SDS011;59471;42.254;23.102;2023-04-03T14:59:49;22.20;;;15.23;;
71620;SDS011;59471;42.254;23.102;2023-04-03T15:04:53;22.00;;;13.03;;
71620;SDS011;59471;42.254;23.102;2023-04-03T15:07:21;18.13;;;10.18;;
71620;SDS011;59471;42.254;23.102;2023-04-03T15:09:48;19.65;;;11.43;;
71620;SDS011;59471;42.254;23.102;2023-04-03T15:12:14;23.27;;;14.13;;
71620;SDS011;59471;42.254;23.102;2023-04-03T15:14:40;8.90;;;4.87;;
71620;SDS011;59471;42.254;23.102;2023-04-03T15:17:05;22.00;;;11.83;;
71620;SDS011;59471;42.254;23.102;2023-04-03T15:19:38;26.27;;;12.07;;
71620;SDS011;59471;42.254;23.102;2023-04-03T15:22:04;19.85;;;11.27;;
71620;SDS011;59471;42.254;23.102;2023-04-03T15:24:30;5.50;;;3.23;;
71620;SDS011;59471;42.254;23.102;2023-04-03T15:26:56;13.27;;;7.65;;
71620;SDS011;59471;42.254;23.102;2023-04-03T15:29:21;21.70;;;10.93;;
71620;SDS011;59471;42.254;23.102;2023-04-03T15:31:47;7.57;;;3.83;;
71620;SDS011;59471;42.254;23.102;2023-04-03T15:34:14;30.67;;;10.07;;
71620;SDS011;59471;42.254;23.102;2023-04-03T15:36:41;77.85;;;30.00;;
71620;SDS011;59471;42.254;23.102;2023-04-03T15:39:06;52.97;;;23.60;;
71620;SDS011;59471;42.254;23.102;2023-04-03T15:41:32;14.48;;;8.02;;
71620;SDS011;59471;42.254;23.102;2023-04-03T15:43:57;8.90;;;4.77;;
71620;SDS011;59471;42.254;23.102;2023-04-03T15:46:23;7.23;;;4.00;;
71620;SDS011;59471;42.254;23.102;2023-04-03T15:48:48;6.75;;;2.97;;
71620;SDS011;59471;42.254;23.102;2023-04-03T15:51:14;12.60;;;6.80;;
71620;SDS011;59471;42.254;23.102;2023-04-03T15:53:40;120.70;;;43.47;;
71620;SDS011;59471;42.254;23.102;2023-04-03T15:56:05;68.93;;;23.13;;
71620;SDS011;59471;42.254;23.102;2023-04-03T15:58:33;69.40;;;30.58;;
71620;SDS011;59471;42.254;23.102;2023-04-03T16:00:58;60.47;;;20.83;;
71620;SDS011;59471;42.254;23.102;2023-04-03T16:03:24;154.73;;;42.13;;
71620;SDS011;59471;42.254;23.102;2023-04-03T16:05:50;206.75;;;82.00;;
71620;SDS011;59471;42.254;23.102;2023-04-03T16:08:16;77.55;;;33.72;;
71620;SDS011;59471;42.254;23.102;2023-04-03T16:10:42;205.17;;;91.33;;
71620;SDS011;59471;42.254;23.102;2023-04-03T16:13:10;144.95;;;58.20;;
71620;SDS011;59471;42.254;23.102;2023-04-03T16:15:36;115.90;;;41.95;;
71620;SDS011;59471;42.254;23.102;2023-04-03T16:18:02;68.87;;;22.37;;
71620;SDS011;59471;42.254;23.102;2023-04-03T16:20:28;81.95;;;36.00;;
71620;SDS011;59471;42.254;23.102;2023-04-03T16:22:56;28.52;;;12.77;;
71620;SDS011;59471;42.254;23.102;2023-04-03T16:25:24;10.67;;;5.27;;
71620;SDS011;59471;42.254;23.102;2023-04-03T16:27:49;18.55;;;9.00;;
71620;SDS011;59471;42.254;23.102;2023-04-03T16:30:15;35.03;;;14.60;;
71620;SDS011;59471;42.254;23.102;2023-04-03T16:32:41;22.60;;;9.40;;
71620;SDS011;59471;42.254;23.102;2023-04-03T16:35:07;64.60;;;25.65;;
71620;SDS011;59471;42.254;23.102;2023-04-03T16:37:35;54.88;;;18.02;;
71620;SDS011;59471;42.254;23.102;2023-04-03T16:40:01;91.33;;;28.50;;
71620;SDS011;59471;42.254;23.102;2023-04-03T16:42:28;43.63;;;15.63;;
71620;SDS011;59471;42.254;23.102;2023-04-03T16:44:53;37.17;;;14.67;;
71620;SDS011;59471;42.254;23.102;2023-04-03T16:47:19;142.13;;;39.80;;
71620;SDS011;59471;42.254;23.102;2023-04-03T16:49:45;58.17;;;18.83;;
71620;SDS011;59471;42.254;23.102;2023-04-03T16:52:11;39.45;;;13.70;;